createdAt,value
2018-12-27T00:00:25.732Z,98.29
2018-12-27T00:02:56.151Z,98.41
2018-12-27T00:08:08.747Z,98.32
2018-12-27T00:10:39.350Z,98.50
2018-12-27T00:13:09.551Z,98.56
2018-12-27T00:15:41.597Z,98.61
2018-12-27T00:18:11.757Z,98.67
2018-12-27T00:20:42.482Z,98.72
2018-12-27T00:23:12.747Z,98.85
2018-12-27T00:25:42.946Z,98.90
2018-12-27T00:30:55.613Z,98.94
2018-12-27T00:33:27.619Z,98.99
2018-12-27T00:35:57.954Z,99.01
2018-12-27T00:38:28.294Z,99.07
2018-12-27T00:40:58.589Z,99.10
2018-12-27T00:43:29.076Z,99.09
2018-12-27T00:45:59.759Z,99.10
2018-12-27T00:48:30.077Z,99.15
2018-12-27T00:51:00.449Z,99.16
2018-12-27T00:53:31.468Z,99.17
2018-12-27T00:56:01.769Z,99.16
2018-12-27T00:58:32.084Z,99.16
2018-12-27T01:03:59.242Z,99.17
2018-12-27T01:06:35.019Z,99.19
2018-12-27T01:09:22.461Z,99.13
2018-12-27T01:11:52.867Z,99.18
2018-12-27T01:14:23.305Z,99.22
2018-12-27T01:16:53.654Z,99.25
2018-12-27T01:19:24.027Z,99.26
2018-12-27T01:21:54.345Z,99.25
2018-12-27T01:24:24.702Z,99.27
2018-12-27T01:26:55.096Z,99.29
2018-12-27T01:29:25.378Z,99.26
2018-12-27T01:31:55.680Z,99.26
2018-12-27T01:34:26.036Z,99.28
2018-12-27T01:36:56.398Z,99.23
2018-12-27T01:39:26.715Z,99.23
2018-12-27T01:41:58.887Z,99.16
2018-12-27T01:44:29.227Z,99.18
2018-12-27T01:46:59.615Z,99.12
2018-12-27T01:49:29.970Z,99.04
2018-12-27T01:52:19.376Z,99.05
2018-12-27T01:54:49.706Z,98.92
2018-12-27T01:57:20.185Z,98.91
2018-12-27T02:02:57.167Z,98.81
2018-12-27T02:05:27.528Z,98.76
2018-12-27T02:07:58.938Z,98.62
2018-12-27T02:10:29.329Z,98.66
2018-12-27T02:13:00.002Z,98.56
2018-12-27T02:15:30.382Z,98.43
2018-12-27T02:18:01.021Z,98.29
2018-12-27T02:20:31.796Z,98.25
2018-12-27T02:23:02.118Z,98.10
2018-12-27T02:25:32.447Z,98.04
2018-12-27T02:28:02.965Z,98.05
2018-12-27T02:30:33.611Z,98.00
2018-12-27T02:33:03.922Z,98.00
2018-12-27T02:35:34.294Z,97.95
2018-12-27T02:38:04.603Z,97.89
2018-12-27T02:40:34.941Z,97.91
2018-12-27T02:43:05.297Z,97.78
2018-12-27T02:45:35.598Z,97.87
2018-12-27T02:48:05.909Z,97.74
2018-12-27T02:53:50.453Z,97.72
2018-12-27T02:56:20.771Z,97.75
2018-12-27T02:58:51.121Z,97.78
2018-12-27T03:01:21.423Z,97.65
2018-12-27T03:03:52.016Z,97.73
2018-12-27T03:06:22.339Z,97.66
2018-12-27T03:08:58.671Z,97.59
2018-12-27T03:11:29.011Z,97.58
2018-12-27T03:14:05.460Z,97.58
2018-12-27T03:16:36.199Z,97.66
2018-12-27T03:19:06.836Z,97.62
2018-12-27T03:21:37.174Z,97.74
2018-12-27T03:24:07.438Z,97.75
2018-12-27T03:26:37.947Z,97.68
2018-12-27T03:29:08.638Z,97.68
2018-12-27T03:31:38.935Z,97.54
2018-12-27T03:37:03.825Z,97.25
2018-12-27T03:39:34.551Z,97.18
2018-12-27T03:42:04.911Z,97.07
2018-12-27T03:44:35.267Z,96.72
2018-12-27T03:47:05.593Z,96.88
2018-12-27T03:49:35.900Z,96.94
2018-12-27T03:52:06.263Z,96.90
2018-12-27T03:54:36.557Z,96.96
2018-12-27T03:57:06.904Z,97.00
2018-12-27T03:59:37.215Z,97.16
2018-12-27T04:02:07.693Z,97.19
2018-12-27T04:04:49.395Z,97.21
2018-12-27T04:07:19.702Z,97.11
2018-12-27T04:09:56.097Z,97.12
2018-12-27T04:12:26.492Z,96.89
2018-12-27T04:15:05.938Z,96.78
2018-12-27T04:17:36.223Z,96.89
2018-12-27T04:20:06.446Z,96.69
2018-12-27T04:22:42.786Z,96.50
2018-12-27T04:25:13.139Z,96.56
2018-12-27T04:27:43.331Z,96.43
2018-12-27T04:30:13.529Z,96.16
2018-12-27T04:35:56.455Z,95.96
2018-12-27T04:38:26.736Z,95.95
2018-12-27T04:40:57.064Z,95.94
2018-12-27T04:43:39.693Z,96.18
2018-12-27T04:46:09.994Z,96.12
2018-12-27T04:48:40.188Z,96.29
2018-12-27T04:54:12.635Z,96.42
2018-12-27T04:56:42.834Z,96.56
2018-12-27T04:59:13.049Z,96.51
2018-12-27T05:01:43.281Z,96.44
2018-12-27T05:04:18.196Z,96.08
2018-12-27T05:07:02.865Z,95.92
2018-12-27T05:09:33.058Z,95.92
2018-12-27T05:12:03.288Z,96.25
2018-12-27T05:14:33.511Z,96.25
2018-12-27T05:17:03.756Z,96.39
2018-12-27T05:19:40.327Z,96.40
2018-12-27T05:22:10.509Z,96.53
2018-12-27T05:24:42.333Z,96.26
2018-12-27T05:27:12.577Z,96.43
2018-12-27T05:29:43.097Z,96.46
2018-12-27T05:32:13.285Z,96.34
2018-12-27T05:34:43.500Z,96.37
2018-12-27T05:37:13.725Z,96.33
2018-12-27T05:39:43.960Z,96.14
2018-12-27T05:42:14.364Z,96.10
2018-12-27T05:44:44.567Z,95.93
2018-12-27T05:47:14.828Z,95.83
2018-12-27T05:49:45.060Z,95.30
2018-12-27T05:52:15.235Z,94.90
2018-12-27T05:54:46.785Z,94.93
2018-12-27T05:57:22.906Z,94.88
2018-12-27T06:02:49.499Z,95.08
2018-12-27T06:05:19.825Z,94.92
2018-12-27T06:08:01.569Z,94.83
2018-12-27T06:13:34.520Z,94.41
2018-12-27T06:16:04.732Z,94.61
2018-12-27T06:18:40.321Z,94.66
2018-12-27T06:21:10.535Z,94.86
2018-12-27T06:23:59.862Z,94.83
2018-12-27T06:26:30.184Z,94.16
2018-12-27T06:29:00.349Z,94.18
2018-12-27T06:37:10.582Z,94.11
2018-12-27T06:39:41.171Z,93.85
2018-12-27T06:42:11.677Z,93.68
2018-12-27T06:47:45.527Z,93.91
2018-12-27T06:50:16.197Z,93.83
2018-12-27T06:52:46.440Z,93.65
2018-12-27T06:55:16.706Z,93.78
2018-12-27T06:57:46.922Z,93.58
2018-12-27T07:00:17.194Z,93.42
2018-12-27T07:02:47.373Z,93.37
2018-12-27T07:08:09.483Z,93.40
2018-12-27T07:13:21.615Z,93.06
2018-12-27T07:15:57.440Z,93.52
2018-12-27T07:18:27.669Z,93.55
2018-12-27T07:20:57.927Z,93.29
2018-12-27T07:26:10.419Z,93.43
2018-12-27T07:28:40.622Z,93.22
2018-12-27T07:31:10.862Z,93.14
2018-12-27T07:33:41.439Z,93.00
2018-12-27T07:36:13.997Z,92.85
2018-12-27T07:41:39.081Z,92.68
2018-12-27T07:44:09.262Z,92.77
2018-12-27T07:46:39.955Z,92.80
2018-12-27T07:49:10.154Z,93.09
2018-12-27T07:51:40.413Z,93.34
2018-12-27T07:54:10.924Z,93.44
2018-12-27T07:56:41.124Z,93.63
2018-12-27T07:59:12.489Z,93.50
2018-12-27T08:01:42.820Z,93.48
2018-12-27T08:04:13.054Z,93.26
2018-12-27T08:06:43.255Z,92.90
2018-12-27T08:09:25.309Z,92.72
2018-12-27T08:11:55.543Z,92.44
2018-12-27T08:14:25.743Z,92.58
2018-12-27T08:22:34.011Z,92.75
2018-12-27T08:25:04.373Z,92.46
2018-12-27T08:27:34.623Z,92.06
2018-12-27T08:30:05.782Z,91.99
2018-12-27T08:32:36.008Z,92.03
2018-12-27T08:35:11.511Z,91.87
2018-12-27T08:40:44.261Z,91.87
2018-12-27T08:46:18.718Z,92.94
2018-12-27T08:48:49.737Z,92.51
2018-12-27T08:54:15.706Z,92.61
2018-12-27T08:59:49.110Z,92.71
2018-12-27T09:02:19.728Z,92.11
2018-12-27T09:04:49.962Z,91.63
2018-12-27T09:07:20.219Z,92.17
2018-12-27T09:10:02.800Z,91.85
2018-12-27T09:18:31.730Z,91.72
2018-12-27T09:21:02.370Z,92.27
2018-12-27T09:23:52.329Z,91.95
2018-12-27T09:29:07.468Z,91.81
2018-12-27T09:31:39.185Z,91.75
2018-12-27T09:37:17.284Z,91.85
2018-12-27T09:39:53.172Z,91.84
2018-12-27T09:42:23.433Z,91.52
2018-12-27T09:44:53.722Z,91.58
2018-12-27T09:47:23.940Z,91.82
2018-12-27T09:52:57.988Z,91.21
2018-12-27T09:55:28.299Z,90.90
2018-12-27T09:57:58.482Z,90.43
2018-12-27T10:00:34.682Z,90.35
2018-12-27T10:05:48.476Z,89.53
2018-12-27T10:08:19.056Z,89.56
2018-12-27T10:11:02.962Z,89.33
2018-12-27T10:13:33.170Z,88.90
2018-12-27T10:16:05.052Z,88.88
2018-12-27T10:18:35.607Z,88.21
2018-12-27T10:21:05.845Z,87.84
2018-12-27T10:23:41.911Z,87.02
2018-12-27T10:26:31.117Z,86.31
2018-12-27T10:29:01.933Z,86.05
2018-12-27T10:31:32.838Z,86.40
2018-12-27T10:34:03.031Z,85.65
2018-12-27T10:36:33.256Z,84.53
2018-12-27T10:42:07.923Z,84.40
2018-12-27T10:44:39.105Z,84.74
2018-12-27T10:47:10.505Z,84.39
2018-12-27T10:49:40.671Z,83.35
2018-12-27T10:52:11.083Z,83.97
2018-12-27T10:57:44.040Z,83.42
2018-12-27T11:00:15.384Z,83.35
2018-12-27T11:02:45.665Z,83.53
2018-12-27T11:05:16.095Z,82.83
2018-12-27T11:10:49.215Z,83.97
2018-12-27T11:13:31.601Z,83.11
2018-12-27T11:16:02.583Z,83.81
2018-12-27T11:18:33.648Z,83.04
2018-12-27T11:21:03.932Z,83.55
2018-12-27T11:23:34.231Z,82.74
2018-12-27T11:26:04.418Z,82.71
2018-12-27T11:28:34.979Z,81.49
2018-12-27T11:31:10.688Z,80.58
2018-12-27T11:33:41.058Z,79.75
2018-12-27T11:36:17.217Z,79.05
2018-12-27T11:38:48.795Z,78.23
2018-12-27T11:41:19.165Z,76.24
2018-12-27T11:43:49.698Z,75.28
2018-12-27T11:46:21.585Z,75.64
2018-12-27T11:48:51.991Z,75.37
2018-12-27T11:51:22.169Z,74.65
2018-12-27T11:53:52.437Z,74.04
2018-12-27T11:56:22.651Z,74.05
2018-12-27T11:58:52.847Z,73.48
2018-12-27T12:01:24.277Z,71.54
2018-12-27T12:03:54.478Z,72.41
2018-12-27T12:06:24.700Z,72.01
2018-12-27T12:08:55.005Z,71.83
2018-12-27T12:11:25.235Z,72.10
2018-12-27T12:13:55.658Z,71.92
2018-12-27T12:19:31.605Z,70.26
2018-12-27T12:22:01.799Z,69.33
2018-12-27T12:24:32.002Z,69.22
2018-12-27T12:27:02.523Z,66.91
2018-12-27T12:29:33.192Z,67.53
2018-12-27T12:32:24.087Z,67.91
2018-12-27T12:35:00.392Z,67.73
2018-12-27T12:37:30.899Z,65.75
2018-12-27T12:40:20.075Z,66.90
2018-12-27T12:42:51.083Z,67.26
2018-12-27T12:50:58.233Z,65.84
2018-12-27T12:53:28.558Z,66.10
2018-12-27T12:55:59.798Z,64.52
2018-12-27T13:01:23.151Z,65.74
2018-12-27T13:03:53.373Z,66.80
2018-12-27T13:06:23.684Z,66.66
2018-12-27T13:12:09.365Z,66.69
2018-12-27T13:14:40.087Z,69.40
2018-12-27T13:17:22.134Z,68.68
2018-12-27T13:19:52.740Z,69.42
2018-12-27T13:22:23.181Z,71.13
2018-12-27T13:24:55.302Z,71.27
2018-12-27T13:27:25.546Z,70.95
2018-12-27T13:32:38.333Z,69.28
2018-12-27T13:35:09.423Z,69.02
2018-12-27T13:37:39.624Z,70.45
2018-12-27T13:40:09.868Z,70.68
2018-12-27T13:42:41.135Z,70.86
2018-12-27T13:50:57.588Z,69.13
2018-12-27T13:56:09.748Z,70.29
2018-12-27T13:58:40.038Z,70.44
2018-12-27T14:01:10.542Z,71.08
2018-12-27T14:03:40.736Z,70.49
2018-12-27T14:06:12.587Z,70.46
2018-12-27T14:08:43.247Z,72.59
2018-12-27T14:11:14.194Z,73.33
2018-12-27T14:13:45.326Z,71.86
2018-12-27T14:16:15.665Z,73.18
2018-12-27T14:18:46.286Z,72.42
2018-12-27T14:21:16.780Z,73.26
2018-12-27T14:24:06.141Z,73.98
2018-12-27T14:29:31.576Z,75.19
2018-12-27T14:32:01.758Z,74.69
2018-12-27T14:34:31.995Z,75.65
2018-12-27T14:37:02.286Z,75.92
2018-12-27T14:39:38.399Z,74.78
2018-12-27T14:42:08.662Z,74.09
2018-12-27T14:44:38.928Z,74.28
2018-12-27T14:47:10.211Z,73.58
2018-12-27T14:49:42.042Z,73.97
2018-12-27T14:52:12.662Z,73.73
2018-12-27T14:54:42.948Z,74.06
2018-12-27T14:57:14.126Z,73.70
2018-12-27T15:00:03.442Z,74.18
2018-12-27T15:02:33.685Z,75.45
2018-12-27T15:07:45.605Z,75.16
2018-12-27T15:10:15.955Z,76.63
2018-12-27T15:12:46.287Z,74.97
2018-12-27T15:15:16.595Z,75.76
2018-12-27T15:17:59.106Z,77.09
2018-12-27T15:20:30.117Z,76.87
2018-12-27T15:23:01.844Z,76.37
2018-12-27T15:25:33.305Z,75.62
2018-12-27T15:28:04.090Z,76.03
2018-12-27T15:30:34.334Z,75.86
2018-12-27T15:33:04.589Z,76.19
2018-12-27T15:44:37.327Z,76.89
2018-12-27T15:47:07.534Z,77.74
2018-12-27T15:49:37.819Z,78.39
2018-12-27T15:52:07.985Z,78.34
2018-12-27T15:54:38.237Z,78.64
2018-12-27T15:57:08.620Z,77.57
2018-12-27T15:59:38.804Z,78.12
2018-12-27T16:02:09.000Z,78.45
2018-12-27T16:04:39.219Z,77.70
2018-12-27T16:07:09.410Z,77.23
2018-12-27T16:09:39.931Z,76.95
2018-12-27T16:12:10.144Z,76.70
2018-12-27T16:14:44.466Z,77.53
2018-12-27T16:20:09.542Z,77.23
2018-12-27T16:22:40.141Z,77.99
2018-12-27T16:25:10.335Z,77.73
2018-12-27T16:27:40.598Z,78.39
2018-12-27T16:30:11.184Z,78.52
2018-12-27T16:35:23.189Z,77.67
2018-12-27T16:37:53.396Z,78.39
2018-12-27T16:40:24.474Z,77.62
2018-12-27T16:45:49.825Z,77.86
2018-12-27T16:48:20.233Z,78.08
2018-12-27T16:50:50.388Z,78.17
2018-12-27T16:53:20.572Z,77.87
2018-12-27T16:55:52.035Z,77.08
2018-12-27T16:58:22.226Z,77.12
2018-12-27T17:00:52.482Z,76.51
2018-12-27T17:03:22.768Z,76.65
2018-12-27T17:05:53.445Z,76.55
2018-12-27T17:11:07.922Z,75.35
2018-12-27T17:13:38.116Z,75.01
2018-12-27T17:16:09.733Z,75.53
2018-12-27T17:18:40.399Z,74.87
2018-12-27T17:24:11.462Z,73.97
2018-12-27T17:26:41.792Z,73.61
2018-12-27T17:29:12.046Z,73.48
2018-12-27T17:31:47.915Z,73.00
2018-12-27T17:34:30.566Z,72.78
2018-12-27T17:37:00.858Z,72.48
2018-12-27T17:42:13.862Z,72.06
2018-12-27T17:44:44.096Z,71.12
2018-12-27T17:47:14.270Z,70.49
2018-12-27T17:49:44.588Z,70.82
2018-12-27T17:52:14.832Z,71.08
2018-12-27T17:54:45.356Z,71.49
2018-12-27T17:57:15.585Z,71.41
2018-12-27T17:59:46.069Z,71.60
2018-12-27T18:02:16.260Z,71.67
2018-12-27T18:04:46.456Z,71.53
2018-12-27T18:07:16.514Z,71.28
2018-12-27T18:09:46.786Z,70.86
2018-12-27T18:12:17.035Z,71.04
2018-12-27T18:17:27.541Z,70.32
2018-12-27T18:19:58.221Z,70.90
2018-12-27T18:22:40.559Z,70.56
2018-12-27T18:25:11.070Z,70.93
2018-12-27T18:27:41.447Z,70.63
2018-12-27T18:30:11.683Z,70.33
2018-12-27T18:32:42.059Z,69.82
2018-12-27T18:35:31.307Z,70.02
2018-12-27T18:38:01.509Z,68.51
2018-12-27T18:40:31.789Z,69.55
2018-12-27T18:43:02.039Z,69.22
2018-12-27T18:45:32.227Z,69.37
2018-12-27T18:53:59.875Z,67.89
2018-12-27T18:56:30.201Z,68.03
2018-12-27T19:01:55.292Z,68.63
2018-12-27T19:04:25.867Z,67.95
2018-12-27T19:07:08.656Z,67.59
2018-12-27T19:09:38.884Z,68.31
2018-12-27T19:15:35.575Z,67.77
2018-12-27T19:18:34.830Z,69.27
2018-12-27T19:21:43.439Z,69.22
2018-12-27T19:24:25.890Z,69.30
2018-12-27T19:29:38.055Z,69.91
2018-12-27T19:32:08.696Z,70.42
2018-12-27T19:34:39.189Z,70.49
2018-12-27T19:37:09.365Z,70.21
2018-12-27T19:39:39.642Z,70.47
2018-12-27T19:42:10.307Z,70.55
2018-12-27T19:50:52.189Z,71.42
2018-12-27T19:53:22.405Z,72.21
2018-12-27T19:55:53.634Z,71.57
2018-12-27T19:58:23.810Z,72.09
2018-12-27T20:03:48.406Z,72.70
2018-12-27T20:06:19.714Z,72.28
2018-12-27T20:08:49.895Z,72.63
2018-12-27T20:11:32.824Z,73.15
2018-12-27T20:17:00.614Z,72.05
2018-12-27T20:22:36.353Z,73.02
2018-12-27T20:30:49.074Z,72.19
2018-12-27T20:33:20.861Z,73.04
2018-12-27T20:35:51.113Z,72.86
2018-12-27T20:38:22.299Z,72.83
2018-12-27T20:40:52.598Z,72.37
2018-12-27T20:52:10.194Z,72.59
2018-12-27T20:54:40.809Z,72.21
2018-12-27T20:57:11.014Z,72.88
2018-12-27T20:59:42.218Z,72.83
2018-12-27T21:02:12.422Z,72.78
2018-12-27T21:04:44.745Z,72.54
2018-12-27T21:07:14.951Z,72.16
2018-12-27T21:15:13.441Z,73.06
2018-12-27T21:17:43.991Z,73.38
2018-12-27T21:22:57.316Z,73.21
2018-12-27T21:25:39.089Z,74.13
2018-12-27T21:28:09.273Z,74.37
2018-12-27T21:30:39.540Z,74.76
2018-12-27T21:33:10.039Z,75.20
2018-12-27T21:35:40.607Z,75.58
2018-12-27T21:38:10.827Z,76.29
2018-12-27T21:40:41.086Z,76.76
2018-12-27T21:43:11.280Z,76.95
2018-12-27T21:45:41.531Z,77.50
2018-12-27T21:48:11.725Z,78.10
2018-12-27T21:50:42.323Z,78.66
2018-12-27T21:53:12.593Z,79.08
2018-12-27T21:55:42.842Z,79.64
2018-12-27T21:58:13.421Z,79.95
2018-12-27T22:00:44.523Z,80.18
2018-12-27T22:03:15.859Z,79.90
2018-12-27T22:05:46.112Z,80.57
2018-12-27T22:11:13.300Z,80.86
2018-12-27T22:13:43.549Z,81.03
2018-12-27T22:16:13.742Z,81.04
2018-12-27T22:18:44.291Z,81.47
2018-12-27T22:21:14.862Z,81.12
2018-12-27T22:26:58.520Z,81.47
2018-12-27T22:32:13.211Z,81.68
2018-12-27T22:34:43.392Z,81.68
2018-12-27T22:37:13.673Z,81.56
2018-12-27T22:39:43.858Z,81.11
2018-12-27T22:42:14.134Z,80.62
2018-12-27T22:44:50.718Z,81.05
2018-12-27T22:50:22.562Z,80.81
2018-12-27T22:52:52.812Z,80.75
2018-12-27T22:55:23.142Z,81.09
2018-12-27T22:57:53.312Z,80.68
2018-12-27T23:00:44.210Z,81.22
2018-12-27T23:05:56.739Z,81.18
2018-12-27T23:08:27.031Z,80.60
2018-12-27T23:11:16.681Z,80.49
2018-12-27T23:13:47.544Z,80.51
2018-12-27T23:22:03.642Z,79.04
2018-12-27T23:24:34.288Z,78.96
2018-12-27T23:27:05.066Z,78.05
2018-12-27T23:29:35.252Z,78.19
2018-12-27T23:32:05.504Z,78.32
2018-12-27T23:34:36.075Z,78.35
2018-12-27T23:37:12.040Z,78.42
2018-12-27T23:39:47.971Z,78.16
2018-12-27T23:42:18.624Z,78.52
2018-12-27T23:44:49.220Z,78.24
2018-12-27T23:50:14.714Z,78.91
2018-12-27T23:55:49.487Z,78.79
2018-12-27T23:58:19.685Z,79.26
